createdAt,value
2023-10-25T04:02:36.000Z,99.99
2023-10-25T04:05:02.628Z,99.99
2023-10-25T04:07:29.715Z,99.99
2023-10-25T04:09:56.460Z,99.99
2023-10-25T04:12:23.064Z,99.99
2023-10-25T04:14:49.659Z,99.99
2023-10-25T04:17:16.355Z,99.99
2023-10-25T04:19:43.148Z,99.99
2023-10-25T04:22:09.905Z,99.99
2023-10-25T04:24:36.656Z,99.99
2023-10-25T04:27:03.407Z,99.99
2023-10-25T04:29:30.240Z,99.99
2023-10-25T04:31:57.158Z,99.99
2023-10-25T04:34:23.945Z,99.99
2023-10-25T04:36:50.719Z,99.99
2023-10-25T04:39:17.367Z,99.99
2023-10-25T04:41:44.156Z,99.99
2023-10-25T04:44:10.774Z,99.99
2023-10-25T04:46:37.512Z,99.99
2023-10-25T04:49:04.552Z,99.99
2023-10-25T04:51:31.191Z,99.99
2023-10-25T04:53:57.942Z,99.99
2023-10-25T04:56:24.663Z,99.99
2023-10-25T04:58:51.572Z,99.99
2023-10-25T05:01:18.293Z,99.99
2023-10-25T05:03:45.925Z,99.99
2023-10-25T05:06:13.260Z,99.99
2023-10-25T05:08:40.208Z,99.99
2023-10-25T05:11:07.831Z,99.99
2023-10-25T05:13:34.995Z,99.99
2023-10-25T05:16:02.227Z,99.99
2023-10-25T05:18:29.482Z,99.99
2023-10-25T05:21:01.275Z,99.99
2023-10-25T05:23:32.733Z,99.99
2023-10-25T05:26:05.623Z,99.99
2023-10-25T05:28:33.256Z,99.99
2023-10-25T05:31:04.833Z,99.99
2023-10-25T05:33:33.325Z,99.99
2023-10-25T05:36:02.161Z,99.99
2023-10-25T05:38:30.552Z,99.99
2023-10-25T05:40:59.812Z,99.88
2023-10-25T05:43:30.137Z,99.99
2023-10-25T05:45:58.160Z,99.86
2023-10-25T05:48:25.354Z,99.99
2023-10-25T05:50:52.314Z,99.58
2023-10-25T05:53:20.316Z,99.47
2023-10-25T05:55:47.594Z,99.54
2023-10-25T05:58:14.780Z,99.60
2023-10-25T06:00:46.463Z,99.46
2023-10-25T06:03:31.367Z,99.37
2023-10-25T06:06:01.659Z,99.37
2023-10-25T06:08:29.504Z,99.16
2023-10-25T06:10:56.350Z,99.21
2023-10-25T06:13:23.401Z,99.26
2023-10-25T06:15:50.216Z,98.98
2023-10-25T06:18:17.144Z,99.07
2023-10-25T06:20:43.804Z,98.99
2023-10-25T06:23:10.420Z,99.01
2023-10-25T06:25:37.741Z,99.19
2023-10-25T06:28:04.633Z,99.12
2023-10-25T06:30:32.296Z,98.93
2023-10-25T06:33:00.153Z,98.73
2023-10-25T06:35:27.028Z,98.89
2023-10-25T06:37:54.244Z,98.92
2023-10-25T06:40:21.442Z,98.85
2023-10-25T06:42:48.390Z,99.05
2023-10-25T06:45:18.420Z,98.90
2023-10-25T06:47:45.594Z,99.03
2023-10-25T06:50:13.616Z,99.05
2023-10-25T06:52:40.811Z,98.96
2023-10-25T06:55:08.724Z,99.07
2023-10-25T06:57:36.826Z,98.97
2023-10-25T07:00:09.607Z,98.94
2023-10-25T07:02:52.725Z,98.72
2023-10-25T07:05:24.518Z,98.52
2023-10-25T07:07:52.979Z,98.49
2023-10-25T07:10:20.697Z,98.29
2023-10-25T07:12:47.942Z,98.03
2023-10-25T07:15:14.743Z,97.59
2023-10-25T07:17:42.807Z,97.78
2023-10-25T07:20:13.284Z,97.64
2023-10-25T07:22:40.341Z,97.65
2023-10-25T07:25:07.581Z,97.74
2023-10-25T07:27:35.226Z,97.57
2023-10-25T07:30:01.837Z,97.74
2023-10-25T07:32:28.517Z,97.79
2023-10-25T07:34:55.137Z,97.89
2023-10-25T07:37:21.819Z,97.67
2023-10-25T07:39:48.473Z,97.79
2023-10-25T07:42:15.139Z,97.85
2023-10-25T07:44:42.216Z,97.64
2023-10-25T07:47:09.060Z,97.57
2023-10-25T07:49:36.436Z,97.53
2023-10-25T07:52:04.491Z,97.21
2023-10-25T07:54:31.093Z,97.65
2023-10-25T07:59:27.438Z,97.65
2023-10-25T08:01:54.335Z,97.52
2023-10-25T08:04:22.619Z,97.22
2023-10-25T08:06:49.560Z,97.31
2023-10-25T08:09:16.235Z,97.15
2023-10-25T08:11:43.185Z,97.47
2023-10-25T08:14:09.889Z,97.79
2023-10-25T08:16:43.657Z,97.92
2023-10-25T08:19:10.582Z,98.25
2023-10-25T08:21:38.030Z,98.51
2023-10-25T08:24:08.692Z,98.61
2023-10-25T08:26:40.738Z,98.75
2023-10-25T08:29:08.633Z,98.45
2023-10-25T08:31:36.024Z,98.26
2023-10-25T08:34:03.252Z,98.46
2023-10-25T08:36:31.755Z,98.60
2023-10-25T08:38:59.238Z,98.75
2023-10-25T08:41:29.930Z,98.53
2023-10-25T08:43:58.714Z,98.85
2023-10-25T08:46:26.997Z,98.96
2023-10-25T08:48:56.473Z,98.69
2023-10-25T08:51:23.623Z,98.77
2023-10-25T08:53:54.799Z,98.72
2023-10-25T08:56:21.603Z,98.61
2023-10-25T08:58:48.198Z,98.71
2023-10-25T09:01:14.855Z,98.61
2023-10-25T09:03:42.823Z,98.70
2023-10-25T09:06:11.032Z,98.94
2023-10-25T09:08:39.194Z,98.89
2023-10-25T09:11:12.936Z,98.53
2023-10-25T09:13:45.505Z,98.61
2023-10-25T09:16:14.672Z,98.62
2023-10-25T09:18:42.457Z,98.72
2023-10-25T09:21:13.391Z,98.79
2023-10-25T09:23:41.200Z,98.65
2023-10-25T09:26:19.564Z,98.78
2023-10-25T09:28:49.676Z,98.74
2023-10-25T09:31:29.668Z,98.74
2023-10-25T09:34:01.264Z,98.79
2023-10-25T09:36:28.515Z,98.62
2023-10-25T09:38:56.559Z,98.41
2023-10-25T09:41:25.589Z,98.81
2023-10-25T09:43:53.739Z,98.98
2023-10-25T09:46:22.479Z,98.92
2023-10-25T09:49:10.023Z,98.77
2023-10-25T09:51:45.600Z,98.94
2023-10-25T09:54:13.766Z,98.82
2023-10-25T09:56:41.442Z,98.86
2023-10-25T09:59:12.148Z,99.06
2023-10-25T10:01:40.876Z,98.95
2023-10-25T10:04:21.416Z,98.81
2023-10-25T10:07:03.168Z,98.72
2023-10-25T10:10:05.504Z,98.81
2023-10-25T10:12:32.705Z,98.28
2023-10-25T10:15:00.027Z,98.43
2023-10-25T10:17:29.472Z,98.49
2023-10-25T10:19:58.538Z,98.53
2023-10-25T10:22:27.262Z,98.82
2023-10-25T10:24:57.891Z,98.50
2023-10-25T10:27:42.971Z,98.10
2023-10-25T10:30:40.407Z,98.06
2023-10-25T10:33:14.595Z,98.00
2023-10-25T10:35:48.850Z,97.79
2023-10-25T10:38:16.085Z,98.40
2023-10-25T10:40:42.932Z,98.04
2023-10-25T10:43:09.495Z,98.18
2023-10-25T10:45:37.253Z,98.53
2023-10-25T10:48:35.719Z,98.13
2023-10-25T10:51:03.720Z,98.70
2023-10-25T10:53:30.930Z,98.65
2023-10-25T10:55:57.902Z,98.95
2023-10-25T10:58:26.410Z,99.09
2023-10-25T11:00:53.377Z,99.46
2023-10-25T11:03:20.787Z,99.47
2023-10-25T11:05:47.952Z,99.46
2023-10-25T11:08:15.375Z,99.73
2023-10-25T11:10:42.484Z,99.64
2023-10-25T11:13:12.066Z,99.64
2023-10-25T11:15:39.733Z,99.89
2023-10-25T11:18:11.396Z,99.98
2023-10-25T11:20:40.638Z,99.92
2023-10-25T11:23:07.465Z,99.71
2023-10-25T11:25:36.143Z,99.85
2023-10-25T11:28:05.222Z,99.71
2023-10-25T11:30:33.760Z,99.48
2023-10-25T11:33:00.407Z,99.65
2023-10-25T11:35:31.388Z,99.99
2023-10-25T11:38:00.438Z,99.93
2023-10-25T11:40:47.278Z,99.89
2023-10-25T11:43:14.619Z,99.99
2023-10-25T11:45:42.148Z,99.96
2023-10-25T11:48:12.009Z,99.85
2023-10-25T11:50:38.882Z,99.86
2023-10-25T11:53:05.836Z,99.92
2023-10-25T11:55:33.006Z,99.76
2023-10-25T11:57:59.729Z,99.99
2023-10-25T12:00:27.101Z,99.99
2023-10-25T12:02:53.783Z,99.99
2023-10-25T12:05:20.568Z,99.99
2023-10-25T12:07:50.304Z,99.99
2023-10-25T12:10:18.086Z,99.99
2023-10-25T12:12:45.189Z,99.99
2023-10-25T12:15:12.223Z,99.99
2023-10-25T12:17:39.144Z,99.99
2023-10-25T12:20:22.634Z,99.99
2023-10-25T12:22:54.264Z,99.99
2023-10-25T12:25:20.984Z,99.99
2023-10-25T12:27:47.640Z,99.99
2023-10-25T12:30:14.815Z,99.99
2023-10-25T12:32:41.539Z,99.99
2023-10-25T12:35:08.778Z,99.99
2023-10-25T12:37:36.226Z,99.99
2023-10-25T12:40:02.930Z,99.99
2023-10-25T12:42:29.581Z,99.99
2023-10-25T12:44:56.400Z,99.99
2023-10-25T12:47:25.060Z,99.99
2023-10-25T12:49:51.784Z,99.99
2023-10-25T12:52:18.808Z,99.99
2023-10-25T12:54:45.757Z,99.99
2023-10-25T12:57:12.912Z,99.99
2023-10-25T12:59:39.668Z,99.99
2023-10-25T13:02:06.798Z,99.99
2023-10-25T13:04:33.541Z,99.99
2023-10-25T13:07:00.344Z,99.99
2023-10-25T13:09:27.184Z,99.99
2023-10-25T13:11:53.994Z,99.99
2023-10-25T13:14:20.797Z,99.99
2023-10-25T13:17:18.870Z,99.99
2023-10-25T13:19:46.816Z,99.99
2023-10-25T13:22:15.221Z,99.99
2023-10-25T13:24:42.395Z,99.99
2023-10-25T13:27:09.276Z,99.99
2023-10-25T13:29:36.062Z,99.99
2023-10-25T13:32:02.628Z,99.99
2023-10-25T13:34:30.291Z,99.99
2023-10-25T13:36:56.958Z,99.99
2023-10-25T13:39:23.588Z,99.99
2023-10-25T13:41:50.289Z,99.99
2023-10-25T13:44:17.442Z,99.99
2023-10-25T13:46:44.151Z,99.99
2023-10-25T13:49:10.757Z,99.99
2023-10-25T13:51:41.170Z,99.99
2023-10-25T13:54:08.227Z,99.99
2023-10-25T13:56:35.210Z,99.99
2023-10-25T13:59:02.422Z,99.99
2023-10-25T14:01:30.039Z,99.99
2023-10-25T14:03:58.195Z,99.99
2023-10-25T14:06:25.665Z,99.99
2023-10-25T14:08:52.414Z,99.99
2023-10-25T14:11:20.021Z,99.99
2023-10-25T14:13:51.638Z,99.99
2023-10-25T14:16:18.570Z,99.99
2023-10-25T14:18:46.911Z,99.99
2023-10-25T14:21:16.490Z,99.99
2023-10-25T14:23:47.713Z,99.99
2023-10-25T14:26:14.586Z,99.99
2023-10-25T14:28:41.674Z,99.99
2023-10-25T14:31:14.208Z,99.99
2023-10-25T14:33:40.938Z,99.99
2023-10-25T14:36:13.488Z,99.99
2023-10-25T14:38:42.159Z,99.99
2023-10-25T14:41:09.912Z,99.99
2023-10-25T14:43:37.958Z,99.99
2023-10-25T14:46:11.847Z,99.99
2023-10-25T14:48:39.298Z,99.99
2023-10-25T14:51:26.951Z,99.99
2023-10-25T14:53:55.026Z,99.99
2023-10-25T14:56:22.831Z,99.99
2023-10-25T14:58:49.673Z,99.99
2023-10-25T15:01:19.845Z,99.99
2023-10-25T15:03:48.271Z,99.99
2023-10-25T15:06:16.696Z,99.99
2023-10-25T15:08:43.332Z,99.99
2023-10-25T15:11:10.360Z,99.99
2023-10-25T15:13:36.953Z,99.99
2023-10-25T15:16:05.029Z,99.99
2023-10-25T15:18:32.826Z,99.99
2023-10-25T15:20:59.735Z,99.99
2023-10-25T15:23:26.367Z,99.99
2023-10-25T15:26:02.451Z,99.99
2023-10-25T15:28:29.641Z,99.99
2023-10-25T15:30:56.272Z,99.99
2023-10-25T15:33:23.079Z,99.99
2023-10-25T15:35:57.517Z,99.99
2023-10-25T15:38:24.543Z,99.99
2023-10-25T15:41:17.284Z,99.99
2023-10-25T15:43:45.268Z,99.99
2023-10-25T15:46:11.970Z,99.99
2023-10-25T15:48:50.763Z,99.99
2023-10-25T15:51:17.972Z,99.99
2023-10-25T15:53:45.352Z,99.99
2023-10-25T15:56:16.215Z,99.99
2023-10-25T15:58:44.009Z,99.99
2023-10-25T16:01:13.312Z,99.99
2023-10-25T16:03:42.368Z,99.99
2023-10-25T16:06:10.972Z,99.99
2023-10-25T16:08:39.878Z,99.99
2023-10-25T16:11:07.926Z,99.99
2023-10-25T16:13:38.098Z,99.99
2023-10-25T16:16:05.389Z,99.99
2023-10-25T16:18:33.469Z,99.99
2023-10-25T16:21:05.061Z,99.99
2023-10-25T16:23:32.585Z,99.99
2023-10-25T16:26:00.057Z,99.99
2023-10-25T16:28:27.198Z,99.99
2023-10-25T16:30:54.175Z,99.99
2023-10-25T16:33:21.604Z,99.99
2023-10-25T16:35:48.289Z,99.99
2023-10-25T16:38:15.466Z,99.99
2023-10-25T16:40:42.216Z,99.99
2023-10-25T16:43:08.773Z,99.99
2023-10-25T16:45:35.490Z,99.99
2023-10-25T16:48:05.046Z,99.99
2023-10-25T16:50:33.139Z,99.99
2023-10-25T16:53:00.824Z,99.99
2023-10-25T16:55:27.760Z,99.99
2023-10-25T16:57:54.464Z,99.99
2023-10-25T17:00:21.336Z,99.99
2023-10-25T17:02:48.167Z,99.99
2023-10-25T17:05:14.844Z,99.99
2023-10-25T17:07:41.771Z,99.99
2023-10-25T17:10:10.129Z,99.99
2023-10-25T17:12:36.788Z,99.99
2023-10-25T17:15:03.509Z,99.99
2023-10-25T17:17:31.904Z,99.99
2023-10-25T17:19:59.161Z,99.99
2023-10-25T17:22:26.359Z,99.99
2023-10-25T17:24:53.130Z,99.99
2023-10-25T17:27:19.779Z,99.99
2023-10-25T17:29:47.140Z,99.99
2023-10-25T17:32:14.660Z,99.99
2023-10-25T17:34:41.865Z,99.99
2023-10-25T17:37:08.626Z,99.99
2023-10-25T17:39:35.186Z,99.99
2023-10-25T17:42:01.804Z,99.99
2023-10-25T17:44:28.570Z,99.99
2023-10-25T17:46:55.199Z,99.99
2023-10-25T17:49:22.040Z,99.99
2023-10-25T17:51:49.283Z,99.99
2023-10-25T17:54:16.156Z,99.99
2023-10-25T17:56:42.879Z,99.99
2023-10-25T17:59:09.508Z,99.99
2023-10-25T18:01:37.348Z,99.99
2023-10-25T18:04:04.342Z,99.99
2023-10-25T18:06:43.215Z,99.99
2023-10-25T18:09:18.031Z,99.99
2023-10-25T18:11:46.893Z,99.99
2023-10-25T18:14:17.099Z,99.99
2023-10-25T18:16:45.200Z,99.99
2023-10-25T18:19:11.780Z,99.99
2023-10-25T18:21:38.307Z,99.99
2023-10-25T18:24:05.208Z,99.99
2023-10-25T18:26:35.554Z,99.99
2023-10-25T18:29:02.256Z,99.99
2023-10-25T18:32:00.204Z,99.99
2023-10-25T18:34:21.399Z,99.99
2023-10-25T18:36:48.513Z,99.99
2023-10-25T18:39:19.081Z,99.99
2023-10-25T18:41:45.684Z,99.99
2023-10-25T18:44:13.511Z,99.99
2023-10-25T18:46:40.038Z,99.99
2023-10-25T18:49:06.868Z,99.99
2023-10-25T18:51:33.490Z,99.99
2023-10-25T18:54:00.307Z,99.99
2023-10-25T18:56:26.900Z,99.99
2023-10-25T18:58:54.978Z,99.99
2023-10-25T19:01:21.730Z,99.99
2023-10-25T19:03:50.912Z,99.99
2023-10-25T19:06:24.526Z,99.99
2023-10-25T19:08:57.274Z,99.99
2023-10-25T19:11:26.126Z,99.99
2023-10-25T19:13:54.846Z,99.99
2023-10-25T19:16:21.882Z,99.99
2023-10-25T19:18:48.563Z,99.99
2023-10-25T19:21:15.228Z,99.99
2023-10-25T19:23:43.850Z,99.99
2023-10-25T19:26:11.254Z,99.99
2023-10-25T19:28:38.084Z,99.99
2023-10-25T19:31:05.069Z,99.99
2023-10-25T19:33:31.790Z,99.99
2023-10-25T19:35:58.483Z,99.99
2023-10-25T19:38:25.968Z,99.99
2023-10-25T19:40:52.588Z,99.99
2023-10-25T19:43:19.319Z,99.99
2023-10-25T19:45:46.304Z,99.99
2023-10-25T19:48:13.054Z,99.99
2023-10-25T19:50:39.903Z,99.99
2023-10-25T19:53:06.751Z,99.99
2023-10-25T19:55:36.063Z,99.99
2023-10-25T19:58:02.720Z,99.99
2023-10-25T20:00:29.503Z,99.99
2023-10-25T20:02:57.012Z,99.99
2023-10-25T20:05:23.828Z,99.99
2023-10-25T20:07:50.486Z,99.99
2023-10-25T20:10:17.748Z,99.99
2023-10-25T20:12:44.536Z,99.99
2023-10-25T20:15:11.979Z,99.99
2023-10-25T20:17:38.887Z,99.99
2023-10-25T20:20:06.239Z,99.99
2023-10-25T20:22:36.621Z,99.99
2023-10-25T20:25:04.829Z,99.99
2023-10-25T20:27:36.297Z,99.99
2023-10-25T20:30:03.822Z,99.99
2023-10-25T20:32:31.852Z,99.99
2023-10-25T20:34:59.542Z,99.99
2023-10-25T20:37:26.272Z,99.99
2023-10-25T20:39:53.191Z,99.99
2023-10-25T20:42:20.007Z,99.99
2023-10-25T20:44:47.283Z,99.99
2023-10-25T20:47:14.099Z,99.99
2023-10-25T20:49:40.720Z,99.99
2023-10-25T20:52:07.428Z,99.99
2023-10-25T20:54:34.030Z,99.99
2023-10-25T20:57:00.740Z,99.99
2023-10-25T20:59:27.456Z,99.99
2023-10-25T21:01:54.069Z,99.99
2023-10-25T21:04:20.695Z,99.99
2023-10-25T21:06:47.460Z,99.99
2023-10-25T21:09:14.286Z,99.99
2023-10-25T21:11:41.001Z,99.99
2023-10-25T21:14:07.640Z,99.99
2023-10-25T21:16:34.337Z,99.99
2023-10-25T21:19:01.085Z,99.99
2023-10-25T21:21:27.604Z,99.99
2023-10-25T21:23:54.268Z,99.99
2023-10-25T21:26:20.995Z,99.99
2023-10-25T21:28:50.570Z,99.99
2023-10-25T21:31:17.849Z,99.99
2023-10-25T21:33:44.478Z,99.99
2023-10-25T21:36:12.424Z,99.99
2023-10-25T21:38:39.751Z,99.99
2023-10-25T21:41:13.614Z,99.99
2023-10-25T21:43:41.673Z,99.99
2023-10-25T21:46:08.273Z,99.99
2023-10-25T21:48:35.062Z,99.99
2023-10-25T21:51:06.173Z,99.99
2023-10-25T21:53:34.080Z,99.99
2023-10-25T21:56:22.489Z,99.99
2023-10-25T21:59:50.130Z,99.99
